sensor_id;sensor_type;location;lat;lon;timestamp;P1;durP1;ratioP1;P2;durP2;ratioP2
61385;SDS011;47256;18.904;-99.054;2023-03-11T00:00:45;26.20;;;6.18;;
61385;SDS011;47256;18.904;-99.054;2023-03-11T00:03:15;10.02;;;5.30;;
61385;SDS011;47256;18.904;-99.054;2023-03-11T00:05:45;12.45;;;5.13;;
61385;SDS011;47256;18.904;-99.054;2023-03-11T00:08:19;15.07;;;4.45;;
61385;SDS011;47256;18.904;-99.054;2023-03-11T00:10:52;17.40;;;4.95;;
61385;SDS011;47256;18.904;-99.054;2023-03-11T00:13:21;13.50;;;4.38;;
61385;SDS011;47256;18.904;-99.054;2023-03-11T00:15:50;8.05;;;4.38;;
61385;SDS011;47256;18.904;-99.054;2023-03-11T00:18:26;7.32;;;4.35;;
61385;SDS011;47256;18.904;-99.054;2023-03-11T00:20:59;13.85;;;5.78;;
61385;SDS011;47256;18.904;-99.054;2023-03-11T00:23:26;31.33;;;6.35;;
61385;SDS011;47256;18.904;-99.054;2023-03-11T00:25:53;17.27;;;5.90;;
61385;SDS011;47256;18.904;-99.054;2023-03-11T00:28:21;24.08;;;7.13;;
61385;SDS011;47256;18.904;-99.054;2023-03-11T00:30:51;23.98;;;7.18;;
61385;SDS011;47256;18.904;-99.054;2023-03-11T00:33:19;14.13;;;6.10;;
61385;SDS011;47256;18.904;-99.054;2023-03-11T00:35:49;17.08;;;6.70;;
61385;SDS011;47256;18.904;-99.054;2023-03-11T00:38:18;13.77;;;6.15;;
61385;SDS011;47256;18.904;-99.054;2023-03-11T00:40:46;16.70;;;5.72;;
61385;SDS011;47256;18.904;-99.054;2023-03-11T00:43:15;16.20;;;6.28;;
61385;SDS011;47256;18.904;-99.054;2023-03-11T00:45:44;11.95;;;5.72;;
61385;SDS011;47256;18.904;-99.054;2023-03-11T00:48:14;7.97;;;5.40;;
61385;SDS011;47256;18.904;-99.054;2023-03-11T00:50:41;12.15;;;5.75;;
61385;SDS011;47256;18.904;-99.054;2023-03-11T00:53:11;13.80;;;5.50;;
61385;SDS011;47256;18.904;-99.054;2023-03-11T00:55:39;19.05;;;6.28;;
61385;SDS011;47256;18.904;-99.054;2023-03-11T00:58:10;12.80;;;5.78;;
61385;SDS011;47256;18.904;-99.054;2023-03-11T01:00:44;22.92;;;6.38;;
61385;SDS011;47256;18.904;-99.054;2023-03-11T01:03:14;8.48;;;5.15;;
61385;SDS011;47256;18.904;-99.054;2023-03-11T01:05:44;14.70;;;6.35;;
61385;SDS011;47256;18.904;-99.054;2023-03-11T01:08:17;15.25;;;6.18;;
61385;SDS011;47256;18.904;-99.054;2023-03-11T01:10:46;13.00;;;5.05;;
61385;SDS011;47256;18.904;-99.054;2023-03-11T01:13:15;15.25;;;5.75;;
61385;SDS011;47256;18.904;-99.054;2023-03-11T01:15:42;10.80;;;5.45;;
61385;SDS011;47256;18.904;-99.054;2023-03-11T01:18:09;9.30;;;5.25;;
61385;SDS011;47256;18.904;-99.054;2023-03-11T01:20:38;11.52;;;4.82;;
61385;SDS011;47256;18.904;-99.054;2023-03-11T01:23:06;13.27;;;5.82;;
61385;SDS011;47256;18.904;-99.054;2023-03-11T01:25:36;12.45;;;6.07;;
61385;SDS011;47256;18.904;-99.054;2023-03-11T01:28:03;10.13;;;6.18;;
61385;SDS011;47256;18.904;-99.054;2023-03-11T01:30:34;12.75;;;5.82;;
61385;SDS011;47256;18.904;-99.054;2023-03-11T01:33:03;9.82;;;5.22;;
61385;SDS011;47256;18.904;-99.054;2023-03-11T01:35:32;8.63;;;5.03;;
61385;SDS011;47256;18.904;-99.054;2023-03-11T01:38:02;8.48;;;4.70;;
61385;SDS011;47256;18.904;-99.054;2023-03-11T01:40:30;11.40;;;5.25;;
61385;SDS011;47256;18.904;-99.054;2023-03-11T01:46:21;12.30;;;5.15;;
61385;SDS011;47256;18.904;-99.054;2023-03-11T01:49:08;9.85;;;5.32;;
61385;SDS011;47256;18.904;-99.054;2023-03-11T01:51:41;8.23;;;5.28;;
61385;SDS011;47256;18.904;-99.054;2023-03-11T01:54:40;17.23;;;6.05;;
61385;SDS011;47256;18.904;-99.054;2023-03-11T01:57:11;10.80;;;5.32;;
61385;SDS011;47256;18.904;-99.054;2023-03-11T01:59:43;9.95;;;5.90;;
61385;SDS011;47256;18.904;-99.054;2023-03-11T02:02:19;7.97;;;4.93;;
61385;SDS011;47256;18.904;-99.054;2023-03-11T02:04:51;9.95;;;5.22;;
61385;SDS011;47256;18.904;-99.054;2023-03-11T02:07:32;9.45;;;5.15;;
61385;SDS011;47256;18.904;-99.054;2023-03-11T02:10:02;7.68;;;4.97;;
61385;SDS011;47256;18.904;-99.054;2023-03-11T02:12:34;11.65;;;6.00;;
61385;SDS011;47256;18.904;-99.054;2023-03-11T02:15:04;14.25;;;5.28;;
61385;SDS011;47256;18.904;-99.054;2023-03-11T02:17:35;8.52;;;4.88;;
61385;SDS011;47256;18.904;-99.054;2023-03-11T02:22:44;34.80;;;6.75;;
61385;SDS011;47256;18.904;-99.054;2023-03-11T02:26:23;8.68;;;5.78;;
61385;SDS011;47256;18.904;-99.054;2023-03-11T02:28:45;12.95;;;5.47;;
61385;SDS011;47256;18.904;-99.054;2023-03-11T02:31:15;13.52;;;6.05;;
61385;SDS011;47256;18.904;-99.054;2023-03-11T02:33:45;15.05;;;6.43;;
61385;SDS011;47256;18.904;-99.054;2023-03-11T02:36:37;18.20;;;5.57;;
61385;SDS011;47256;18.904;-99.054;2023-03-11T02:39:12;10.15;;;5.80;;
61385;SDS011;47256;18.904;-99.054;2023-03-11T02:41:43;8.85;;;6.03;;
61385;SDS011;47256;18.904;-99.054;2023-03-11T02:44:16;14.65;;;6.32;;
61385;SDS011;47256;18.904;-99.054;2023-03-11T02:46:43;16.17;;;6.60;;
61385;SDS011;47256;18.904;-99.054;2023-03-11T02:49:14;18.13;;;6.10;;
61385;SDS011;47256;18.904;-99.054;2023-03-11T02:51:44;9.75;;;6.95;;
61385;SDS011;47256;18.904;-99.054;2023-03-11T02:57:15;12.20;;;4.72;;
61385;SDS011;47256;18.904;-99.054;2023-03-11T03:00:10;24.17;;;7.35;;
61385;SDS011;47256;18.904;-99.054;2023-03-11T03:02:53;23.75;;;9.70;;
61385;SDS011;47256;18.904;-99.054;2023-03-11T03:05:26;26.20;;;8.48;;
61385;SDS011;47256;18.904;-99.054;2023-03-11T03:08:23;20.15;;;7.32;;
61385;SDS011;47256;18.904;-99.054;2023-03-11T03:10:53;14.82;;;8.23;;
61385;SDS011;47256;18.904;-99.054;2023-03-11T03:13:26;13.85;;;8.10;;
61385;SDS011;47256;18.904;-99.054;2023-03-11T03:15:59;14.30;;;7.13;;
61385;SDS011;47256;18.904;-99.054;2023-03-11T03:18:36;17.55;;;8.38;;
61385;SDS011;47256;18.904;-99.054;2023-03-11T03:21:29;14.52;;;7.55;;
61385;SDS011;47256;18.904;-99.054;2023-03-11T03:24:02;21.63;;;8.15;;
61385;SDS011;47256;18.904;-99.054;2023-03-11T03:26:32;30.05;;;7.65;;
61385;SDS011;47256;18.904;-99.054;2023-03-11T03:29:05;15.13;;;9.15;;
61385;SDS011;47256;18.904;-99.054;2023-03-11T03:31:34;26.63;;;10.02;;
61385;SDS011;47256;18.904;-99.054;2023-03-11T03:34:06;30.98;;;9.77;;
61385;SDS011;47256;18.904;-99.054;2023-03-11T03:36:36;23.77;;;9.32;;
61385;SDS011;47256;18.904;-99.054;2023-03-11T03:39:18;33.75;;;10.02;;
61385;SDS011;47256;18.904;-99.054;2023-03-11T03:41:50;20.15;;;9.82;;
61385;SDS011;47256;18.904;-99.054;2023-03-11T03:44:26;19.83;;;8.43;;
61385;SDS011;47256;18.904;-99.054;2023-03-11T03:46:58;22.48;;;8.27;;
61385;SDS011;47256;18.904;-99.054;2023-03-11T03:49:30;33.25;;;9.50;;
61385;SDS011;47256;18.904;-99.054;2023-03-11T03:52:04;31.63;;;11.98;;
61385;SDS011;47256;18.904;-99.054;2023-03-11T03:54:38;37.58;;;13.18;;
61385;SDS011;47256;18.904;-99.054;2023-03-11T03:57:09;23.65;;;11.57;;
61385;SDS011;47256;18.904;-99.054;2023-03-11T03:59:44;24.38;;;10.77;;
61385;SDS011;47256;18.904;-99.054;2023-03-11T04:05:24;32.95;;;12.88;;
61385;SDS011;47256;18.904;-99.054;2023-03-11T04:08:10;27.40;;;12.10;;
61385;SDS011;47256;18.904;-99.054;2023-03-11T04:10:38;26.80;;;11.25;;
61385;SDS011;47256;18.904;-99.054;2023-03-11T04:13:09;26.33;;;11.15;;
61385;SDS011;47256;18.904;-99.054;2023-03-11T04:15:44;30.30;;;10.07;;
61385;SDS011;47256;18.904;-99.054;2023-03-11T04:18:15;27.15;;;10.25;;
61385;SDS011;47256;18.904;-99.054;2023-03-11T04:20:46;18.15;;;8.80;;
61385;SDS011;47256;18.904;-99.054;2023-03-11T04:23:22;19.65;;;7.50;;
61385;SDS011;47256;18.904;-99.054;2023-03-11T04:25:51;28.92;;;8.75;;
61385;SDS011;47256;18.904;-99.054;2023-03-11T04:28:20;15.02;;;8.15;;
61385;SDS011;47256;18.904;-99.054;2023-03-11T04:30:49;18.35;;;8.02;;
61385;SDS011;47256;18.904;-99.054;2023-03-11T04:33:22;16.80;;;8.82;;
61385;SDS011;47256;18.904;-99.054;2023-03-11T04:35:50;26.85;;;9.05;;
61385;SDS011;47256;18.904;-99.054;2023-03-11T04:38:19;28.42;;;8.50;;
61385;SDS011;47256;18.904;-99.054;2023-03-11T04:40:47;21.52;;;10.60;;
61385;SDS011;47256;18.904;-99.054;2023-03-11T04:43:17;23.30;;;8.32;;
61385;SDS011;47256;18.904;-99.054;2023-03-11T04:45:45;18.98;;;8.00;;
61385;SDS011;47256;18.904;-99.054;2023-03-11T04:48:19;24.77;;;8.93;;
61385;SDS011;47256;18.904;-99.054;2023-03-11T04:50:47;17.92;;;6.93;;
61385;SDS011;47256;18.904;-99.054;2023-03-11T04:53:16;20.58;;;8.43;;
61385;SDS011;47256;18.904;-99.054;2023-03-11T04:55:45;17.05;;;8.55;;
61385;SDS011;47256;18.904;-99.054;2023-03-11T04:58:16;12.45;;;6.72;;
61385;SDS011;47256;18.904;-99.054;2023-03-11T05:00:45;19.70;;;8.23;;
61385;SDS011;47256;18.904;-99.054;2023-03-11T05:03:17;20.33;;;8.25;;
61385;SDS011;47256;18.904;-99.054;2023-03-11T05:05:45;25.00;;;10.00;;
61385;SDS011;47256;18.904;-99.054;2023-03-11T05:08:25;19.33;;;8.13;;
61385;SDS011;47256;18.904;-99.054;2023-03-11T05:10:52;24.25;;;9.05;;
61385;SDS011;47256;18.904;-99.054;2023-03-11T05:13:22;24.73;;;7.88;;
61385;SDS011;47256;18.904;-99.054;2023-03-11T05:15:51;29.17;;;9.25;;
61385;SDS011;47256;18.904;-99.054;2023-03-11T05:18:19;24.52;;;8.60;;
61385;SDS011;47256;18.904;-99.054;2023-03-11T05:20:48;15.55;;;8.10;;
61385;SDS011;47256;18.904;-99.054;2023-03-11T05:23:21;16.90;;;8.43;;
61385;SDS011;47256;18.904;-99.054;2023-03-11T05:25:48;18.40;;;8.75;;
61385;SDS011;47256;18.904;-99.054;2023-03-11T05:28:16;16.85;;;8.07;;
61385;SDS011;47256;18.904;-99.054;2023-03-11T05:30:49;14.52;;;6.85;;
61385;SDS011;47256;18.904;-99.054;2023-03-11T05:33:20;14.57;;;7.25;;
61385;SDS011;47256;18.904;-99.054;2023-03-11T05:35:48;9.52;;;6.82;;
61385;SDS011;47256;18.904;-99.054;2023-03-11T05:38:18;14.48;;;7.60;;
61385;SDS011;47256;18.904;-99.054;2023-03-11T05:40:46;12.82;;;6.95;;
61385;SDS011;47256;18.904;-99.054;2023-03-11T05:43:13;13.40;;;7.05;;
61385;SDS011;47256;18.904;-99.054;2023-03-11T05:45:47;12.57;;;6.55;;
61385;SDS011;47256;18.904;-99.054;2023-03-11T05:48:15;16.45;;;6.07;;
61385;SDS011;47256;18.904;-99.054;2023-03-11T05:50:42;14.10;;;6.25;;
61385;SDS011;47256;18.904;-99.054;2023-03-11T05:53:09;9.88;;;6.68;;
61385;SDS011;47256;18.904;-99.054;2023-03-11T05:55:36;12.48;;;6.75;;
61385;SDS011;47256;18.904;-99.054;2023-03-11T05:58:04;11.07;;;6.25;;
61385;SDS011;47256;18.904;-99.054;2023-03-11T06:00:31;14.07;;;6.82;;
61385;SDS011;47256;18.904;-99.054;2023-03-11T06:03:04;8.02;;;5.72;;
61385;SDS011;47256;18.904;-99.054;2023-03-11T06:10:04;9.13;;;6.00;;
61385;SDS011;47256;18.904;-99.054;2023-03-11T06:12:33;13.70;;;6.82;;
61385;SDS011;47256;18.904;-99.054;2023-03-11T06:15:13;12.05;;;5.95;;
61385;SDS011;47256;18.904;-99.054;2023-03-11T06:17:41;21.25;;;7.13;;
61385;SDS011;47256;18.904;-99.054;2023-03-11T06:20:13;11.10;;;5.47;;
61385;SDS011;47256;18.904;-99.054;2023-03-11T06:22:41;18.63;;;6.82;;
61385;SDS011;47256;18.904;-99.054;2023-03-11T06:25:09;11.85;;;7.30;;
61385;SDS011;47256;18.904;-99.054;2023-03-11T06:27:39;15.18;;;7.25;;
61385;SDS011;47256;18.904;-99.054;2023-03-11T06:30:07;12.82;;;6.60;;
61385;SDS011;47256;18.904;-99.054;2023-03-11T06:32:44;20.88;;;7.13;;
61385;SDS011;47256;18.904;-99.054;2023-03-11T06:35:16;16.58;;;6.72;;
61385;SDS011;47256;18.904;-99.054;2023-03-11T06:37:48;14.32;;;6.68;;
61385;SDS011;47256;18.904;-99.054;2023-03-11T06:40:16;10.20;;;6.60;;
61385;SDS011;47256;18.904;-99.054;2023-03-11T06:42:45;11.57;;;6.60;;
61385;SDS011;47256;18.904;-99.054;2023-03-11T06:45:13;13.15;;;6.32;;
61385;SDS011;47256;18.904;-99.054;2023-03-11T06:47:42;19.27;;;6.88;;
61385;SDS011;47256;18.904;-99.054;2023-03-11T06:50:09;13.65;;;6.97;;
61385;SDS011;47256;18.904;-99.054;2023-03-11T06:52:37;11.38;;;6.30;;
61385;SDS011;47256;18.904;-99.054;2023-03-11T06:55:07;14.18;;;7.15;;
61385;SDS011;47256;18.904;-99.054;2023-03-11T06:57:36;13.80;;;6.95;;
61385;SDS011;47256;18.904;-99.054;2023-03-11T07:00:07;19.70;;;7.53;;
61385;SDS011;47256;18.904;-99.054;2023-03-11T07:02:43;15.90;;;7.25;;
61385;SDS011;47256;18.904;-99.054;2023-03-11T07:05:14;15.40;;;7.20;;
61385;SDS011;47256;18.904;-99.054;2023-03-11T07:07:42;9.70;;;7.15;;
61385;SDS011;47256;18.904;-99.054;2023-03-11T07:10:10;13.60;;;6.97;;
61385;SDS011;47256;18.904;-99.054;2023-03-11T07:12:38;27.95;;;7.68;;
61385;SDS011;47256;18.904;-99.054;2023-03-11T07:15:05;12.73;;;6.60;;
61385;SDS011;47256;18.904;-99.054;2023-03-11T07:17:35;14.85;;;6.90;;
61385;SDS011;47256;18.904;-99.054;2023-03-11T07:20:02;10.90;;;7.32;;
61385;SDS011;47256;18.904;-99.054;2023-03-11T07:22:30;14.48;;;7.25;;
61385;SDS011;47256;18.904;-99.054;2023-03-11T07:24:59;14.65;;;7.32;;
61385;SDS011;47256;18.904;-99.054;2023-03-11T07:27:26;16.48;;;6.85;;
61385;SDS011;47256;18.904;-99.054;2023-03-11T07:29:55;20.33;;;8.43;;
61385;SDS011;47256;18.904;-99.054;2023-03-11T07:32:22;13.02;;;7.35;;
61385;SDS011;47256;18.904;-99.054;2023-03-11T07:34:49;12.82;;;6.82;;
61385;SDS011;47256;18.904;-99.054;2023-03-11T07:37:17;12.80;;;7.10;;
61385;SDS011;47256;18.904;-99.054;2023-03-11T07:39:44;15.32;;;7.43;;
61385;SDS011;47256;18.904;-99.054;2023-03-11T07:42:12;17.77;;;7.47;;
61385;SDS011;47256;18.904;-99.054;2023-03-11T07:44:39;12.27;;;6.90;;
61385;SDS011;47256;18.904;-99.054;2023-03-11T07:47:06;22.77;;;8.18;;
61385;SDS011;47256;18.904;-99.054;2023-03-11T07:49:35;12.73;;;6.68;;
61385;SDS011;47256;18.904;-99.054;2023-03-11T07:52:03;16.83;;;8.35;;
61385;SDS011;47256;18.904;-99.054;2023-03-11T07:54:30;9.05;;;6.68;;
61385;SDS011;47256;18.904;-99.054;2023-03-11T07:56:58;16.10;;;7.68;;
61385;SDS011;47256;18.904;-99.054;2023-03-11T07:59:27;8.20;;;5.40;;
61385;SDS011;47256;18.904;-99.054;2023-03-11T08:01:56;16.30;;;7.60;;
61385;SDS011;47256;18.904;-99.054;2023-03-11T08:04:23;12.50;;;6.85;;
61385;SDS011;47256;18.904;-99.054;2023-03-11T08:06:54;15.38;;;8.20;;
61385;SDS011;47256;18.904;-99.054;2023-03-11T08:09:22;16.80;;;7.95;;
61385;SDS011;47256;18.904;-99.054;2023-03-11T08:11:49;16.75;;;7.20;;
61385;SDS011;47256;18.904;-99.054;2023-03-11T08:14:16;10.82;;;7.35;;
61385;SDS011;47256;18.904;-99.054;2023-03-11T08:16:43;21.83;;;7.60;;
61385;SDS011;47256;18.904;-99.054;2023-03-11T08:19:11;15.40;;;7.30;;
61385;SDS011;47256;18.904;-99.054;2023-03-11T08:21:39;13.93;;;7.22;;
61385;SDS011;47256;18.904;-99.054;2023-03-11T08:24:06;11.30;;;6.88;;
61385;SDS011;47256;18.904;-99.054;2023-03-11T08:26:36;13.00;;;7.28;;
61385;SDS011;47256;18.904;-99.054;2023-03-11T08:29:03;17.73;;;7.65;;
61385;SDS011;47256;18.904;-99.054;2023-03-11T08:31:31;12.30;;;7.55;;
61385;SDS011;47256;18.904;-99.054;2023-03-11T08:34:01;13.77;;;7.00;;
61385;SDS011;47256;18.904;-99.054;2023-03-11T08:36:31;14.25;;;7.05;;
61385;SDS011;47256;18.904;-99.054;2023-03-11T08:38:58;12.75;;;7.05;;
61385;SDS011;47256;18.904;-99.054;2023-03-11T08:41:26;10.43;;;6.72;;
61385;SDS011;47256;18.904;-99.054;2023-03-11T08:43:53;13.18;;;6.53;;
61385;SDS011;47256;18.904;-99.054;2023-03-11T08:46:26;13.35;;;6.70;;
61385;SDS011;47256;18.904;-99.054;2023-03-11T08:48:57;13.25;;;7.00;;
61385;SDS011;47256;18.904;-99.054;2023-03-11T08:51:25;10.55;;;5.93;;
61385;SDS011;47256;18.904;-99.054;2023-03-11T08:53:54;14.70;;;7.65;;
61385;SDS011;47256;18.904;-99.054;2023-03-11T11:51:57;12.40;;;5.75;;
61385;SDS011;47256;18.904;-99.054;2023-03-11T11:54:39;10.43;;;5.45;;
61385;SDS011;47256;18.904;-99.054;2023-03-11T11:57:50;13.32;;;6.15;;
61385;SDS011;47256;18.904;-99.054;2023-03-11T12:06:19;6.25;;;4.78;;
61385;SDS011;47256;18.904;-99.054;2023-03-11T12:16:56;10.30;;;6.05;;
61385;SDS011;47256;18.904;-99.054;2023-03-11T12:22:17;7.53;;;5.07;;
61385;SDS011;47256;18.904;-99.054;2023-03-11T12:28:53;11.63;;;5.20;;
61385;SDS011;47256;18.904;-99.054;2023-03-11T12:31:20;26.52;;;5.82;;
61385;SDS011;47256;18.904;-99.054;2023-03-11T12:33:59;22.35;;;7.15;;
61385;SDS011;47256;18.904;-99.054;2023-03-11T12:36:33;14.98;;;6.75;;
61385;SDS011;47256;18.904;-99.054;2023-03-11T12:39:06;17.17;;;6.10;;
61385;SDS011;47256;18.904;-99.054;2023-03-11T12:41:47;8.93;;;5.93;;
61385;SDS011;47256;18.904;-99.054;2023-03-11T12:44:28;19.35;;;7.22;;
61385;SDS011;47256;18.904;-99.054;2023-03-11T12:49:51;20.88;;;6.95;;
61385;SDS011;47256;18.904;-99.054;2023-03-11T12:52:24;23.05;;;7.47;;
61385;SDS011;47256;18.904;-99.054;2023-03-11T13:03:41;22.33;;;7.82;;
61385;SDS011;47256;18.904;-99.054;2023-03-11T13:06:35;17.52;;;5.70;;
61385;SDS011;47256;18.904;-99.054;2023-03-11T13:09:14;10.43;;;5.53;;
61385;SDS011;47256;18.904;-99.054;2023-03-11T13:11:48;13.32;;;6.28;;
61385;SDS011;47256;18.904;-99.054;2023-03-11T13:14:25;7.68;;;4.15;;
61385;SDS011;47256;18.904;-99.054;2023-03-11T13:20:36;14.40;;;6.13;;
61385;SDS011;47256;18.904;-99.054;2023-03-11T13:23:20;29.55;;;6.82;;
61385;SDS011;47256;18.904;-99.054;2023-03-11T13:36:54;24.70;;;5.70;;
61385;SDS011;47256;18.904;-99.054;2023-03-11T13:42:34;17.05;;;5.43;;
61385;SDS011;47256;18.904;-99.054;2023-03-11T13:45:15;11.50;;;6.25;;
61385;SDS011;47256;18.904;-99.054;2023-03-11T13:47:54;16.77;;;5.75;;
61385;SDS011;47256;18.904;-99.054;2023-03-11T13:50:35;20.02;;;6.90;;
61385;SDS011;47256;18.904;-99.054;2023-03-11T13:53:14;14.98;;;6.82;;
61385;SDS011;47256;18.904;-99.054;2023-03-11T13:56:11;20.17;;;6.35;;
61385;SDS011;47256;18.904;-99.054;2023-03-11T13:59:16;11.68;;;6.15;;
61385;SDS011;47256;18.904;-99.054;2023-03-11T14:01:55;16.73;;;6.55;;
61385;SDS011;47256;18.904;-99.054;2023-03-11T14:04:27;18.00;;;8.50;;
61385;SDS011;47256;18.904;-99.054;2023-03-11T14:06:56;13.63;;;8.15;;
61385;SDS011;47256;18.904;-99.054;2023-03-11T14:09:26;16.08;;;8.55;;
61385;SDS011;47256;18.904;-99.054;2023-03-11T14:11:54;17.73;;;8.60;;
61385;SDS011;47256;18.904;-99.054;2023-03-11T14:17:15;23.08;;;8.07;;
61385;SDS011;47256;18.904;-99.054;2023-03-11T14:20:00;30.88;;;8.20;;
61385;SDS011;47256;18.904;-99.054;2023-03-11T14:22:51;15.13;;;7.45;;
61385;SDS011;47256;18.904;-99.054;2023-03-11T14:25:24;14.55;;;7.60;;
61385;SDS011;47256;18.904;-99.054;2023-03-11T14:28:00;11.82;;;6.18;;
61385;SDS011;47256;18.904;-99.054;2023-03-11T14:30:32;18.65;;;7.93;;
61385;SDS011;47256;18.904;-99.054;2023-03-11T14:33:04;21.98;;;7.95;;
61385;SDS011;47256;18.904;-99.054;2023-03-11T14:35:52;17.80;;;8.13;;
61385;SDS011;47256;18.904;-99.054;2023-03-11T14:38:32;11.50;;;6.68;;
61385;SDS011;47256;18.904;-99.054;2023-03-11T14:41:03;18.05;;;6.93;;
61385;SDS011;47256;18.904;-99.054;2023-03-11T14:43:32;19.30;;;7.70;;
61385;SDS011;47256;18.904;-99.054;2023-03-11T14:46:07;22.92;;;7.22;;
61385;SDS011;47256;18.904;-99.054;2023-03-11T14:48:42;12.75;;;6.85;;
61385;SDS011;47256;18.904;-99.054;2023-03-11T14:51:16;20.42;;;8.82;;
61385;SDS011;47256;18.904;-99.054;2023-03-11T14:53:56;27.02;;;7.57;;
61385;SDS011;47256;18.904;-99.054;2023-03-11T14:57:06;14.90;;;6.97;;
61385;SDS011;47256;18.904;-99.054;2023-03-11T14:59:50;27.20;;;8.52;;
61385;SDS011;47256;18.904;-99.054;2023-03-11T15:05:01;33.65;;;7.65;;
61385;SDS011;47256;18.904;-99.054;2023-03-11T15:07:37;18.63;;;7.90;;
61385;SDS011;47256;18.904;-99.054;2023-03-11T15:10:07;45.75;;;8.93;;
61385;SDS011;47256;18.904;-99.054;2023-03-11T15:12:41;203.77;;;19.95;;
61385;SDS011;47256;18.904;-99.054;2023-03-11T15:15:20;26.90;;;7.60;;
61385;SDS011;47256;18.904;-99.054;2023-03-11T15:17:55;15.13;;;6.75;;
61385;SDS011;47256;18.904;-99.054;2023-03-11T15:20:30;8.93;;;5.72;;
61385;SDS011;47256;18.904;-99.054;2023-03-11T15:23:01;11.93;;;5.85;;
61385;SDS011;47256;18.904;-99.054;2023-03-11T15:25:33;10.50;;;5.95;;
61385;SDS011;47256;18.904;-99.054;2023-03-11T15:28:22;16.05;;;5.43;;
61385;SDS011;47256;18.904;-99.054;2023-03-11T15:31:14;9.10;;;4.85;;
61385;SDS011;47256;18.904;-99.054;2023-03-11T15:33:47;10.13;;;5.78;;
61385;SDS011;47256;18.904;-99.054;2023-03-11T15:41:56;8.23;;;5.22;;
61385;SDS011;47256;18.904;-99.054;2023-03-11T15:44:36;8.27;;;5.63;;
61385;SDS011;47256;18.904;-99.054;2023-03-11T15:47:29;16.27;;;4.82;;
61385;SDS011;47256;18.904;-99.054;2023-03-11T15:49:57;10.18;;;6.15;;
61385;SDS011;47256;18.904;-99.054;2023-03-11T15:52:31;15.70;;;6.78;;
61385;SDS011;47256;18.904;-99.054;2023-03-11T15:54:58;13.68;;;7.30;;
61385;SDS011;47256;18.904;-99.054;2023-03-11T15:57:29;41.95;;;7.90;;
61385;SDS011;47256;18.904;-99.054;2023-03-11T15:59:57;9.95;;;6.90;;
61385;SDS011;47256;18.904;-99.054;2023-03-11T16:09:48;16.25;;;6.32;;
61385;SDS011;47256;18.904;-99.054;2023-03-11T16:12:19;16.75;;;6.90;;
61385;SDS011;47256;18.904;-99.054;2023-03-11T16:14:50;10.43;;;6.50;;
61385;SDS011;47256;18.904;-99.054;2023-03-11T16:17:36;13.05;;;7.32;;
61385;SDS011;47256;18.904;-99.054;2023-03-11T16:21:00;11.43;;;6.20;;
61385;SDS011;47256;18.904;-99.054;2023-03-11T16:23:51;13.35;;;5.90;;
61385;SDS011;47256;18.904;-99.054;2023-03-11T16:26:23;9.15;;;5.65;;
61385;SDS011;47256;18.904;-99.054;2023-03-11T16:28:51;11.88;;;6.75;;
61385;SDS011;47256;18.904;-99.054;2023-03-11T16:31:18;13.02;;;6.40;;
61385;SDS011;47256;18.904;-99.054;2023-03-11T16:33:55;9.52;;;5.82;;
61385;SDS011;47256;18.904;-99.054;2023-03-11T16:36:22;11.32;;;6.93;;
61385;SDS011;47256;18.904;-99.054;2023-03-11T16:38:49;18.38;;;8.95;;
61385;SDS011;47256;18.904;-99.054;2023-03-11T16:41:17;19.15;;;7.95;;
61385;SDS011;47256;18.904;-99.054;2023-03-11T16:43:45;16.60;;;8.90;;
61385;SDS011;47256;18.904;-99.054;2023-03-11T16:46:12;12.32;;;7.07;;
61385;SDS011;47256;18.904;-99.054;2023-03-11T16:48:41;9.70;;;6.43;;
61385;SDS011;47256;18.904;-99.054;2023-03-11T16:51:08;11.85;;;6.35;;
61385;SDS011;47256;18.904;-99.054;2023-03-11T16:53:36;10.93;;;6.13;;
61385;SDS011;47256;18.904;-99.054;2023-03-11T16:56:03;12.27;;;6.28;;
61385;SDS011;47256;18.904;-99.054;2023-03-11T16:58:33;7.75;;;5.32;;
61385;SDS011;47256;18.904;-99.054;2023-03-11T17:01:00;43.45;;;7.82;;
61385;SDS011;47256;18.904;-99.054;2023-03-11T17:03:31;13.18;;;6.05;;
61385;SDS011;47256;18.904;-99.054;2023-03-11T17:06:02;19.15;;;8.60;;
61385;SDS011;47256;18.904;-99.054;2023-03-11T17:08:37;41.17;;;10.80;;
61385;SDS011;47256;18.904;-99.054;2023-03-11T17:11:13;16.02;;;8.38;;
61385;SDS011;47256;18.904;-99.054;2023-03-11T17:13:45;10.48;;;6.15;;
61385;SDS011;47256;18.904;-99.054;2023-03-11T17:16:14;20.92;;;7.97;;
61385;SDS011;47256;18.904;-99.054;2023-03-11T17:18:42;8.40;;;5.88;;
61385;SDS011;47256;18.904;-99.054;2023-03-11T17:21:11;12.68;;;6.13;;
61385;SDS011;47256;18.904;-99.054;2023-03-11T17:23:40;17.23;;;6.03;;
61385;SDS011;47256;18.904;-99.054;2023-03-11T17:26:08;8.88;;;6.03;;
61385;SDS011;47256;18.904;-99.054;2023-03-11T17:28:45;9.95;;;6.13;;
61385;SDS011;47256;18.904;-99.054;2023-03-11T17:31:13;11.70;;;7.43;;
61385;SDS011;47256;18.904;-99.054;2023-03-11T17:33:50;10.18;;;6.07;;
61385;SDS011;47256;18.904;-99.054;2023-03-11T17:36:18;7.45;;;5.22;;
61385;SDS011;47256;18.904;-99.054;2023-03-11T17:38:45;11.93;;;7.75;;
61385;SDS011;47256;18.904;-99.054;2023-03-11T17:41:17;14.90;;;8.15;;
61385;SDS011;47256;18.904;-99.054;2023-03-11T17:43:48;13.15;;;6.80;;
61385;SDS011;47256;18.904;-99.054;2023-03-11T17:46:16;17.98;;;6.97;;
61385;SDS011;47256;18.904;-99.054;2023-03-11T17:48:51;12.15;;;5.90;;
61385;SDS011;47256;18.904;-99.054;2023-03-11T17:51:24;8.95;;;5.47;;
61385;SDS011;47256;18.904;-99.054;2023-03-11T17:53:53;10.55;;;5.55;;
61385;SDS011;47256;18.904;-99.054;2023-03-11T17:56:23;7.13;;;5.20;;
61385;SDS011;47256;18.904;-99.054;2023-03-11T17:58:56;9.23;;;5.93;;
61385;SDS011;47256;18.904;-99.054;2023-03-11T18:01:25;7.43;;;5.55;;
61385;SDS011;47256;18.904;-99.054;2023-03-11T18:03:53;8.32;;;5.75;;
61385;SDS011;47256;18.904;-99.054;2023-03-11T18:06:22;19.60;;;6.10;;
61385;SDS011;47256;18.904;-99.054;2023-03-11T18:08:50;17.73;;;7.32;;
61385;SDS011;47256;18.904;-99.054;2023-03-11T18:11:23;9.63;;;6.18;;
61385;SDS011;47256;18.904;-99.054;2023-03-11T18:13:52;9.27;;;6.28;;
61385;SDS011;47256;18.904;-99.054;2023-03-11T18:16:20;9.10;;;5.28;;
61385;SDS011;47256;18.904;-99.054;2023-03-11T18:18:49;9.23;;;6.55;;
61385;SDS011;47256;18.904;-99.054;2023-03-11T18:21:19;12.85;;;5.78;;
61385;SDS011;47256;18.904;-99.054;2023-03-11T18:23:50;9.73;;;6.70;;
61385;SDS011;47256;18.904;-99.054;2023-03-11T18:26:21;14.18;;;7.13;;
61385;SDS011;47256;18.904;-99.054;2023-03-11T18:28:53;11.07;;;6.18;;
61385;SDS011;47256;18.904;-99.054;2023-03-11T18:31:23;8.85;;;5.75;;
61385;SDS011;47256;18.904;-99.054;2023-03-11T18:33:56;13.80;;;6.28;;
61385;SDS011;47256;18.904;-99.054;2023-03-11T18:36:30;11.23;;;6.38;;
61385;SDS011;47256;18.904;-99.054;2023-03-11T18:38:59;15.40;;;6.55;;
61385;SDS011;47256;18.904;-99.054;2023-03-11T18:41:29;11.13;;;7.18;;
61385;SDS011;47256;18.904;-99.054;2023-03-11T18:43:59;9.45;;;5.68;;
61385;SDS011;47256;18.904;-99.054;2023-03-11T18:46:28;9.00;;;6.20;;
61385;SDS011;47256;18.904;-99.054;2023-03-11T18:51:51;13.45;;;6.43;;
61385;SDS011;47256;18.904;-99.054;2023-03-11T18:54:19;10.45;;;6.43;;
61385;SDS011;47256;18.904;-99.054;2023-03-11T18:57:11;10.23;;;6.15;;
61385;SDS011;47256;18.904;-99.054;2023-03-11T18:59:39;9.98;;;6.97;;
61385;SDS011;47256;18.904;-99.054;2023-03-11T19:02:09;11.68;;;6.15;;
61385;SDS011;47256;18.904;-99.054;2023-03-11T19:04:38;9.13;;;5.85;;